UAE5CL NZCH-YSSY
Flight info
| Callsign | UAE5CL |
|---|---|
| Flight time | N/A |
| Altitude | 38000 |
| Route | VANDA N750 PLUGA DCT RIKNI N774 MARLN |
| Aircraft | A388/J-SADE2E3FGHIJ3J4J5M1RWXY/LB1D1 |
Departure
| Time | 2026-04-30 05:24 |
|---|---|
| Airport | Christchurch International Airport (NZCH) |
Arrival
| Time | N/A |
|---|---|
| Airport | Sydney Kingsford Smith International Airport (YSSY) |
| Time | Latitude | Longitude | Altitude | Speed | Heading |
|---|---|---|---|---|---|
| 2026-04-30 05:04 | -43.48671 | 172.54195 | 110 ft | 0 kts | 225° |
| 2026-04-30 05:12 | -43.48660 | 172.54211 | 109 ft | 3 kts | 233° |
| 2026-04-30 05:12 | -43.48648 | 172.54238 | 107 ft | 3 kts | 253° |
| 2026-04-30 05:12 | -43.48645 | 172.54267 | 107 ft | 3 kts | 277° |
| 2026-04-30 05:13 | -43.48651 | 172.54296 | 106 ft | 3 kts | 299° |
| 2026-04-30 05:13 | -43.48661 | 172.54318 | 107 ft | 1 kts | 311° |
| 2026-04-30 05:17 | -43.48660 | 172.54316 | 107 ft | 1 kts | 311° |
| 2026-04-30 05:17 | -43.48648 | 172.54297 | 106 ft | 4 kts | 311° |
| 2026-04-30 05:17 | -43.48623 | 172.54258 | 108 ft | 7 kts | 311° |
| 2026-04-30 05:18 | -43.48591 | 172.54206 | 109 ft | 8 kts | 310° |
| 2026-04-30 05:18 | -43.48555 | 172.54145 | 110 ft | 9 kts | 309° |
| 2026-04-30 05:18 | -43.48516 | 172.54074 | 110 ft | 10 kts | 292° |
| 2026-04-30 05:18 | -43.48522 | 172.53989 | 108 ft | 9 kts | 231° |
| 2026-04-30 05:19 | -43.48569 | 172.53927 | 112 ft | 10 kts | 221° |
| 2026-04-30 05:19 | -43.48628 | 172.53859 | 113 ft | 12 kts | 219° |
| 2026-04-30 05:19 | -43.48699 | 172.53778 | 114 ft | 13 kts | 220° |
| 2026-04-30 05:19 | -43.48771 | 172.53696 | 115 ft | 14 kts | 218° |
| 2026-04-30 05:20 | -43.48855 | 172.53598 | 117 ft | 18 kts | 221° |
| 2026-04-30 05:20 | -43.48953 | 172.53483 | 115 ft | 20 kts | 219° |
| 2026-04-30 05:20 | -43.49069 | 172.53352 | 112 ft | 23 kts | 218° |
| 2026-04-30 05:20 | -43.49188 | 172.53216 | 113 ft | 23 kts | 221° |
| 2026-04-30 05:21 | -43.49309 | 172.53075 | 115 ft | 22 kts | 220° |
| 2026-04-30 05:21 | -43.49426 | 172.52940 | 119 ft | 22 kts | 220° |
| 2026-04-30 05:21 | -43.49545 | 172.52807 | 122 ft | 22 kts | 219° |
| 2026-04-30 05:21 | -43.49666 | 172.52667 | 122 ft | 24 kts | 220° |
| 2026-04-30 05:22 | -43.49781 | 172.52527 | 120 ft | 18 kts | 233° |
| 2026-04-30 05:22 | -43.49792 | 172.52405 | 120 ft | 15 kts | 274° |
| 2026-04-30 05:22 | -43.49771 | 172.52261 | 117 ft | 15 kts | 308° |
| 2026-04-30 05:22 | -43.49722 | 172.52256 | 115 ft | 7 kts | 36° |
| 2026-04-30 05:23 | -43.49708 | 172.52271 | 115 ft | 0 kts | 40° |
| 2026-04-30 05:23 | -43.49591 | 172.52405 | 116 ft | 57 kts | 40° |
| 2026-04-30 05:23 | -43.49093 | 172.52980 | 113 ft | 126 kts | 40° |
| 2026-04-30 05:24 | -43.48302 | 172.53893 | 125 ft | 166 kts | 40° |
| 2026-04-30 05:24 | -43.47406 | 172.54906 | 656 ft | 162 kts | 41° |
| 2026-04-30 05:24 | -43.46539 | 172.55825 | 1348 ft | 155 kts | 40° |
| 2026-04-30 05:24 | -43.45692 | 172.56780 | 1912 ft | 161 kts | 40° |
| 2026-04-30 05:25 | -43.44812 | 172.57766 | 2185 ft | 174 kts | 39° |
| 2026-04-30 05:25 | -43.43825 | 172.58870 | 2369 ft | 188 kts | 39° |
| 2026-04-30 05:25 | -43.42775 | 172.60038 | 2471 ft | 200 kts | 36° |
| 2026-04-30 05:25 | -43.41478 | 172.60783 | 2552 ft | 211 kts | 5° |
| 2026-04-30 05:26 | -43.39981 | 172.60362 | 2741 ft | 233 kts | 332° |
| 2026-04-30 05:26 | -43.38769 | 172.58797 | 3058 ft | 250 kts | 303° |
| 2026-04-30 05:26 | -43.38065 | 172.56588 | 3671 ft | 255 kts | 290° |
| 2026-04-30 05:26 | -43.37537 | 172.54272 | 4418 ft | 254 kts | 288° |
| 2026-04-30 05:27 | -43.37001 | 172.51934 | 5048 ft | 259 kts | 289° |
| 2026-04-30 05:27 | -43.36420 | 172.49613 | 5653 ft | 264 kts | 289° |
| 2026-04-30 05:27 | -43.35787 | 172.47247 | 6290 ft | 266 kts | 290° |
| 2026-04-30 05:27 | -43.35119 | 172.44835 | 6867 ft | 271 kts | 290° |
| 2026-04-30 05:28 | -43.34434 | 172.42400 | 7471 ft | 275 kts | 290° |
| 2026-04-30 05:28 | -43.33738 | 172.39935 | 8038 ft | 279 kts | 290° |
| 2026-04-30 05:28 | -43.33034 | 172.37439 | 8632 ft | 282 kts | 289° |
| 2026-04-30 05:28 | -43.32319 | 172.34913 | 9210 ft | 286 kts | 289° |
| 2026-04-30 05:29 | -43.31592 | 172.32343 | 9824 ft | 289 kts | 290° |
| 2026-04-30 05:29 | -43.30859 | 172.29753 | 10359 ft | 296 kts | 289° |
| 2026-04-30 05:29 | -43.30100 | 172.27071 | 10517 ft | 314 kts | 289° |
| 2026-04-30 05:29 | -43.29289 | 172.24204 | 10664 ft | 330 kts | 289° |
| 2026-04-30 05:30 | -43.28438 | 172.21204 | 10883 ft | 343 kts | 289° |
| 2026-04-30 05:30 | -43.27567 | 172.18145 | 11415 ft | 345 kts | 289° |
| 2026-04-30 05:30 | -43.26687 | 172.15061 | 11929 ft | 348 kts | 290° |
| 2026-04-30 05:30 | -43.25798 | 172.11948 | 12409 ft | 352 kts | 290° |
| 2026-04-30 05:31 | -43.24904 | 172.08821 | 12974 ft | 353 kts | 290° |
| 2026-04-30 05:31 | -43.24015 | 172.05710 | 13488 ft | 356 kts | 290° |
| 2026-04-30 05:31 | -43.23105 | 172.02530 | 13929 ft | 361 kts | 290° |
| 2026-04-30 05:31 | -43.22186 | 171.99319 | 14495 ft | 362 kts | 290° |
| 2026-04-30 05:32 | -43.21260 | 171.96091 | 14949 ft | 365 kts | 290° |
| 2026-04-30 05:32 | -43.20326 | 171.92843 | 15405 ft | 368 kts | 290° |
| 2026-04-30 05:32 | -43.19384 | 171.89570 | 15851 ft | 370 kts | 290° |
| 2026-04-30 05:32 | -43.18436 | 171.86275 | 16307 ft | 373 kts | 290° |
| 2026-04-30 05:33 | -43.17479 | 171.82957 | 16757 ft | 376 kts | 290° |
| 2026-04-30 05:33 | -43.16514 | 171.79619 | 17212 ft | 378 kts | 291° |
| 2026-04-30 05:33 | -43.15541 | 171.76253 | 17636 ft | 381 kts | 291° |
| 2026-04-30 05:33 | -43.14575 | 171.72915 | 18064 ft | 383 kts | 291° |
| 2026-04-30 05:34 | -43.13587 | 171.69511 | 18481 ft | 386 kts | 291° |
| 2026-04-30 05:34 | -43.12593 | 171.66088 | 18918 ft | 388 kts | 291° |
| 2026-04-30 05:34 | -43.11590 | 171.62634 | 19208 ft | 392 kts | 291° |
| 2026-04-30 05:34 | -43.10579 | 171.59163 | 19621 ft | 393 kts | 291° |
| 2026-04-30 05:35 | -43.09564 | 171.55682 | 20001 ft | 395 kts | 291° |
| 2026-04-30 05:35 | -43.08541 | 171.52179 | 20354 ft | 397 kts | 291° |
| 2026-04-30 05:35 | -43.07513 | 171.48664 | 20714 ft | 399 kts | 291° |
| 2026-04-30 05:35 | -43.06477 | 171.45129 | 21068 ft | 401 kts | 291° |
| 2026-04-30 05:36 | -43.05454 | 171.41635 | 21407 ft | 403 kts | 291° |
| 2026-04-30 05:36 | -43.04407 | 171.38066 | 21764 ft | 405 kts | 291° |
| 2026-04-30 05:36 | -43.03357 | 171.34494 | 22130 ft | 407 kts | 291° |
| 2026-04-30 05:36 | -43.02297 | 171.30893 | 22470 ft | 409 kts | 291° |
| 2026-04-30 05:37 | -43.01234 | 171.27285 | 22844 ft | 410 kts | 291° |
| 2026-04-30 05:37 | -43.00168 | 171.23677 | 23261 ft | 410 kts | 291° |
| 2026-04-30 05:37 | -42.99096 | 171.20051 | 23551 ft | 413 kts | 291° |
| 2026-04-30 05:37 | -42.98031 | 171.16453 | 23885 ft | 415 kts | 291° |
| 2026-04-30 05:38 | -42.96947 | 171.12796 | 24198 ft | 417 kts | 291° |
| 2026-04-30 05:38 | -42.95854 | 171.09114 | 24459 ft | 419 kts | 291° |
| 2026-04-30 05:38 | -42.94757 | 171.05424 | 24764 ft | 420 kts | 291° |
| 2026-04-30 05:38 | -42.93657 | 171.01732 | 25045 ft | 422 kts | 291° |
| 2026-04-30 05:39 | -42.92549 | 170.98015 | 25340 ft | 423 kts | 291° |
| 2026-04-30 05:39 | -42.91436 | 170.94288 | 25629 ft | 425 kts | 291° |
| 2026-04-30 05:39 | -42.90319 | 170.90551 | 25905 ft | 427 kts | 291° |
| 2026-04-30 05:39 | -42.89198 | 170.86810 | 26258 ft | 427 kts | 291° |
| 2026-04-30 05:40 | -42.88085 | 170.83100 | 26539 ft | 429 kts | 291° |
| 2026-04-30 05:40 | -42.86952 | 170.79327 | 26859 ft | 431 kts | 291° |
| 2026-04-30 05:40 | -42.85813 | 170.75538 | 27174 ft | 433 kts | 291° |
| 2026-04-30 05:40 | -42.84667 | 170.71732 | 27411 ft | 437 kts | 291° |
| 2026-04-30 05:41 | -42.83504 | 170.67878 | 27673 ft | 441 kts | 291° |
| 2026-04-30 05:41 | -42.82337 | 170.64014 | 28037 ft | 442 kts | 291° |
| 2026-04-30 05:41 | -42.81163 | 170.60136 | 28362 ft | 444 kts | 291° |
| 2026-04-30 05:41 | -42.79983 | 170.56242 | 28682 ft | 446 kts | 291° |
| 2026-04-30 05:42 | -42.78812 | 170.52381 | 29030 ft | 448 kts | 291° |
| 2026-04-30 05:42 | -42.77619 | 170.48457 | 29431 ft | 449 kts | 291° |
| 2026-04-30 05:42 | -42.76419 | 170.44516 | 29692 ft | 453 kts | 291° |
| 2026-04-30 05:42 | -42.75212 | 170.40556 | 30094 ft | 453 kts | 291° |
| 2026-04-30 05:43 | -42.73998 | 170.36579 | 30400 ft | 457 kts | 291° |
| 2026-04-30 05:43 | -42.72777 | 170.32585 | 30770 ft | 458 kts | 291° |
| 2026-04-30 05:43 | -42.71550 | 170.28580 | 31066 ft | 460 kts | 291° |
| 2026-04-30 05:43 | -42.70318 | 170.24562 | 31380 ft | 461 kts | 291° |
| 2026-04-30 05:44 | -42.69080 | 170.20533 | 31689 ft | 463 kts | 291° |
| 2026-04-30 05:44 | -42.67852 | 170.16541 | 31971 ft | 465 kts | 291° |
| 2026-04-30 05:44 | -42.66604 | 170.12491 | 32335 ft | 465 kts | 291° |
| 2026-04-30 05:44 | -42.65351 | 170.08431 | 32610 ft | 467 kts | 291° |
| 2026-04-30 05:45 | -42.64092 | 170.04359 | 32899 ft | 469 kts | 290° |
| 2026-04-30 05:45 | -42.62826 | 170.00267 | 33190 ft | 471 kts | 290° |
| 2026-04-30 05:45 | -42.61553 | 169.96163 | 33471 ft | 473 kts | 290° |
| 2026-04-30 05:45 | -42.60275 | 169.92046 | 33748 ft | 475 kts | 290° |
| 2026-04-30 05:46 | -42.58989 | 169.87910 | 34036 ft | 476 kts | 290° |
| 2026-04-30 05:46 | -42.57712 | 169.83812 | 34309 ft | 478 kts | 290° |
| 2026-04-30 05:46 | -42.56415 | 169.79653 | 34558 ft | 481 kts | 290° |
| 2026-04-30 05:46 | -42.55109 | 169.75475 | 34829 ft | 481 kts | 290° |
| 2026-04-30 05:47 | -42.53801 | 169.71295 | 35111 ft | 482 kts | 290° |
| 2026-04-30 05:47 | -42.52487 | 169.67104 | 35369 ft | 483 kts | 290° |
| 2026-04-30 05:47 | -42.51170 | 169.62909 | 35715 ft | 482 kts | 290° |
| 2026-04-30 05:47 | -42.49858 | 169.58741 | 36085 ft | 481 kts | 290° |
| 2026-04-30 05:48 | -42.48548 | 169.54582 | 36448 ft | 479 kts | 290° |
| 2026-04-30 05:48 | -42.47258 | 169.50494 | 36807 ft | 477 kts | 290° |
| 2026-04-30 05:48 | -42.45955 | 169.46370 | 37158 ft | 476 kts | 290° |
| 2026-04-30 05:48 | -42.44655 | 169.42255 | 37497 ft | 474 kts | 290° |
| 2026-04-30 05:49 | -42.43360 | 169.38165 | 37919 ft | 471 kts | 290° |
| 2026-04-30 05:49 | -42.42049 | 169.34105 | 38261 ft | 470 kts | 292° |
| 2026-04-30 05:49 | -42.40594 | 169.30142 | 38543 ft | 470 kts | 294° |
| 2026-04-30 05:49 | -42.39137 | 169.26169 | 38581 ft | 475 kts | 294° |
| 2026-04-30 05:50 | -42.36256 | 169.18201 | 38586 ft | 472 kts | 294° |
| 2026-04-30 05:50 | -42.33363 | 169.10219 | 38586 ft | 474 kts | 294° |
| 2026-04-30 05:51 | -42.30454 | 169.02231 | 38586 ft | 474 kts | 294° |
| 2026-04-30 05:51 | -42.27541 | 168.94261 | 38584 ft | 474 kts | 294° |
| 2026-04-30 05:52 | -42.24615 | 168.86291 | 38585 ft | 473 kts | 294° |
| 2026-04-30 05:52 | -42.21706 | 168.78392 | 38585 ft | 473 kts | 294° |
| 2026-04-30 05:53 | -42.18772 | 168.70449 | 38588 ft | 473 kts | 294° |
| 2026-04-30 05:53 | -42.15831 | 168.62509 | 38592 ft | 473 kts | 294° |
| 2026-04-30 05:54 | -42.12890 | 168.54591 | 38589 ft | 473 kts | 294° |
| 2026-04-30 05:54 | -42.09963 | 168.46731 | 38587 ft | 472 kts | 294° |
| 2026-04-30 05:55 | -42.07014 | 168.38833 | 38585 ft | 472 kts | 294° |
| 2026-04-30 05:55 | -42.04059 | 168.30945 | 38583 ft | 472 kts | 294° |
| 2026-04-30 05:56 | -42.01107 | 168.23084 | 38593 ft | 471 kts | 294° |
| 2026-04-30 05:56 | -41.98170 | 168.15284 | 38586 ft | 470 kts | 294° |
| 2026-04-30 05:57 | -41.95211 | 168.07447 | 38586 ft | 470 kts | 294° |
| 2026-04-30 05:57 | -41.92248 | 167.99622 | 38584 ft | 470 kts | 294° |
| 2026-04-30 05:58 | -41.89283 | 167.91812 | 38589 ft | 469 kts | 294° |
| 2026-04-30 05:58 | -41.86313 | 167.84011 | 38585 ft | 469 kts | 295° |
| 2026-04-30 05:59 | -41.83359 | 167.76271 | 38589 ft | 469 kts | 295° |
| 2026-04-30 05:59 | -41.80382 | 167.68491 | 38589 ft | 469 kts | 295° |
| 2026-04-30 06:00 | -41.77399 | 167.60720 | 38595 ft | 469 kts | 295° |
| 2026-04-30 06:00 | -41.74411 | 167.52955 | 38610 ft | 469 kts | 295° |
| 2026-04-30 06:01 | -41.71440 | 167.45255 | 38593 ft | 469 kts | 295° |
| 2026-04-30 06:01 | -41.68444 | 167.37510 | 38592 ft | 468 kts | 295° |
| 2026-04-30 06:02 | -41.65447 | 167.29782 | 38596 ft | 468 kts | 295° |
| 2026-04-30 06:02 | -41.62443 | 167.22059 | 38601 ft | 468 kts | 295° |
| 2026-04-30 06:03 | -41.59453 | 167.14392 | 38605 ft | 468 kts | 295° |
| 2026-04-30 06:03 | -41.56438 | 167.06680 | 38606 ft | 468 kts | 295° |
| 2026-04-30 06:04 | -41.53421 | 166.98983 | 38605 ft | 468 kts | 295° |
| 2026-04-30 06:05 | -41.48882 | 166.87443 | 38608 ft | 468 kts | 295° |
| 2026-04-30 06:05 | -41.45873 | 166.79817 | 38609 ft | 468 kts | 295° |
| 2026-04-30 06:06 | -41.42841 | 166.72154 | 38613 ft | 468 kts | 295° |
| 2026-04-30 06:06 | -41.39804 | 166.64497 | 38609 ft | 467 kts | 296° |
| 2026-04-30 06:07 | -41.36760 | 166.56842 | 38608 ft | 468 kts | 296° |
| 2026-04-30 06:07 | -41.33732 | 166.49248 | 38607 ft | 468 kts | 296° |
| 2026-04-30 06:08 | -41.30675 | 166.41599 | 38611 ft | 468 kts | 296° |
| 2026-04-30 06:08 | -41.27616 | 166.33969 | 38614 ft | 468 kts | 296° |
| 2026-04-30 06:09 | -41.24547 | 166.26331 | 38620 ft | 468 kts | 296° |
| 2026-04-30 06:09 | -41.21495 | 166.18754 | 38618 ft | 469 kts | 296° |
| 2026-04-30 06:10 | -41.18414 | 166.11126 | 38624 ft | 468 kts | 296° |
| 2026-04-30 06:10 | -41.15329 | 166.03509 | 38618 ft | 468 kts | 296° |
| 2026-04-30 06:11 | -41.12242 | 165.95905 | 38601 ft | 468 kts | 296° |
| 2026-04-30 06:11 | -41.09172 | 165.88363 | 38604 ft | 468 kts | 296° |
| 2026-04-30 06:12 | -41.06078 | 165.80779 | 38607 ft | 468 kts | 296° |
| 2026-04-30 06:12 | -41.02973 | 165.73190 | 38601 ft | 469 kts | 296° |
| 2026-04-30 06:13 | -40.99862 | 165.65603 | 38603 ft | 469 kts | 296° |
| 2026-04-30 06:13 | -40.96766 | 165.58075 | 38609 ft | 469 kts | 296° |
| 2026-04-30 06:14 | -40.93641 | 165.50493 | 38628 ft | 469 kts | 296° |
| 2026-04-30 06:14 | -40.90509 | 165.42915 | 38626 ft | 469 kts | 296° |
| 2026-04-30 06:15 | -40.87372 | 165.35342 | 38623 ft | 469 kts | 296° |
| 2026-04-30 06:15 | -40.84254 | 165.27837 | 38605 ft | 470 kts | 297° |
| 2026-04-30 06:16 | -40.81107 | 165.20279 | 38587 ft | 470 kts | 297° |
| 2026-04-30 06:16 | -40.77954 | 165.12725 | 38596 ft | 470 kts | 297° |
| 2026-04-30 06:17 | -40.74798 | 165.05183 | 38609 ft | 470 kts | 297° |
| 2026-04-30 06:17 | -40.71651 | 164.97683 | 38605 ft | 471 kts | 297° |
| 2026-04-30 06:18 | -40.68476 | 164.90133 | 38614 ft | 471 kts | 297° |
| 2026-04-30 06:18 | -40.65297 | 164.82594 | 38615 ft | 471 kts | 297° |
| 2026-04-30 06:19 | -40.62108 | 164.75050 | 38615 ft | 471 kts | 297° |
| 2026-04-30 06:19 | -40.58935 | 164.67561 | 38613 ft | 471 kts | 297° |
| 2026-04-30 06:20 | -40.55737 | 164.60033 | 38613 ft | 471 kts | 297° |
| 2026-04-30 06:20 | -40.52535 | 164.52514 | 38614 ft | 471 kts | 297° |
| 2026-04-30 06:21 | -40.49332 | 164.45010 | 38599 ft | 471 kts | 297° |
| 2026-04-30 06:21 | -40.46119 | 164.37502 | 38596 ft | 471 kts | 297° |
| 2026-04-30 06:22 | -40.42900 | 164.29999 | 38600 ft | 472 kts | 297° |
| 2026-04-30 06:22 | -40.39700 | 164.22559 | 38602 ft | 472 kts | 297° |
| 2026-04-30 06:23 | -40.36470 | 164.15066 | 38604 ft | 472 kts | 297° |
| 2026-04-30 06:23 | -40.33232 | 164.07576 | 38606 ft | 472 kts | 297° |
| 2026-04-30 06:24 | -40.30010 | 164.00138 | 38599 ft | 472 kts | 297° |
| 2026-04-30 06:24 | -40.26763 | 163.92661 | 38597 ft | 473 kts | 298° |
| 2026-04-30 06:25 | -40.23505 | 163.85177 | 38598 ft | 473 kts | 298° |
| 2026-04-30 06:25 | -40.20244 | 163.77706 | 38600 ft | 473 kts | 298° |
| 2026-04-30 06:26 | -40.16995 | 163.70280 | 38591 ft | 474 kts | 298° |
| 2026-04-30 06:26 | -40.13720 | 163.62812 | 38584 ft | 474 kts | 298° |
| 2026-04-30 06:27 | -40.10434 | 163.55336 | 38590 ft | 474 kts | 298° |
| 2026-04-30 06:27 | -40.07141 | 163.47863 | 38594 ft | 475 kts | 298° |
| 2026-04-30 06:28 | -40.03839 | 163.40390 | 38595 ft | 475 kts | 298° |
| 2026-04-30 06:28 | -40.00557 | 163.32976 | 38596 ft | 476 kts | 298° |
| 2026-04-30 06:29 | -39.97242 | 163.25508 | 38595 ft | 476 kts | 298° |
| 2026-04-30 06:29 | -39.93924 | 163.18043 | 38592 ft | 476 kts | 298° |
| 2026-04-30 06:30 | -39.90604 | 163.10586 | 38591 ft | 476 kts | 298° |
| 2026-04-30 06:30 | -39.87300 | 163.03181 | 38590 ft | 476 kts | 298° |
| 2026-04-30 06:31 | -39.83903 | 162.95781 | 38583 ft | 476 kts | 299° |
| 2026-04-30 06:31 | -39.80572 | 162.88342 | 38570 ft | 476 kts | 298° |
| 2026-04-30 06:32 | -39.77245 | 162.80886 | 38577 ft | 477 kts | 298° |
| 2026-04-30 06:32 | -39.73894 | 162.73439 | 38582 ft | 478 kts | 298° |
| 2026-04-30 06:33 | -39.70553 | 162.66052 | 38580 ft | 478 kts | 298° |
| 2026-04-30 06:33 | -39.67175 | 162.58608 | 38579 ft | 478 kts | 298° |
| 2026-04-30 06:34 | -39.63792 | 162.51170 | 38582 ft | 479 kts | 299° |
| 2026-04-30 06:34 | -39.60424 | 162.43785 | 38585 ft | 479 kts | 299° |
| 2026-04-30 06:35 | -39.57033 | 162.36367 | 38581 ft | 479 kts | 299° |
| 2026-04-30 06:35 | -39.53636 | 162.28951 | 38577 ft | 479 kts | 299° |
| 2026-04-30 06:36 | -39.50231 | 162.21538 | 38561 ft | 479 kts | 299° |
| 2026-04-30 06:36 | -39.46823 | 162.14134 | 38565 ft | 479 kts | 299° |
| 2026-04-30 06:37 | -39.43435 | 162.06791 | 38566 ft | 479 kts | 299° |
| 2026-04-30 06:37 | -39.40012 | 161.99391 | 38569 ft | 479 kts | 299° |
| 2026-04-30 06:38 | -39.36582 | 161.91993 | 38566 ft | 480 kts | 299° |
| 2026-04-30 06:38 | -39.33148 | 161.84601 | 38567 ft | 480 kts | 299° |
| 2026-04-30 06:39 | -39.29731 | 161.77266 | 38570 ft | 480 kts | 299° |
| 2026-04-30 06:39 | -39.26284 | 161.69882 | 38568 ft | 480 kts | 299° |
| 2026-04-30 06:40 | -39.22831 | 161.62502 | 38568 ft | 480 kts | 299° |
| 2026-04-30 06:40 | -39.19376 | 161.55137 | 38558 ft | 480 kts | 299° |
| 2026-04-30 06:41 | -39.15937 | 161.47821 | 38562 ft | 480 kts | 300° |
| 2026-04-30 06:41 | -39.12469 | 161.40462 | 38555 ft | 480 kts | 300° |
| 2026-04-30 06:42 | -39.08995 | 161.33108 | 38554 ft | 480 kts | 300° |
| 2026-04-30 06:42 | -39.05522 | 161.25771 | 38557 ft | 481 kts | 300° |
| 2026-04-30 06:43 | -39.02037 | 161.18427 | 38550 ft | 481 kts | 300° |
| 2026-04-30 06:43 | -38.98570 | 161.11136 | 38548 ft | 481 kts | 300° |
| 2026-04-30 06:44 | -38.95074 | 161.03802 | 38552 ft | 481 kts | 300° |
| 2026-04-30 06:44 | -38.91575 | 160.96478 | 38551 ft | 481 kts | 300° |
| 2026-04-30 06:45 | -38.88067 | 160.89153 | 38549 ft | 482 kts | 300° |
| 2026-04-30 06:45 | -38.84575 | 160.81878 | 38541 ft | 482 kts | 300° |
| 2026-04-30 06:46 | -38.81054 | 160.74559 | 38542 ft | 482 kts | 300° |
| 2026-04-30 06:46 | -38.77529 | 160.67248 | 38537 ft | 483 kts | 300° |
| 2026-04-30 06:47 | -38.73990 | 160.59924 | 38533 ft | 483 kts | 300° |
| 2026-04-30 06:47 | -38.70450 | 160.52615 | 38533 ft | 484 kts | 300° |
| 2026-04-30 06:48 | -38.66921 | 160.45347 | 38560 ft | 484 kts | 300° |
| 2026-04-30 06:48 | -38.63363 | 160.38034 | 38563 ft | 484 kts | 300° |
| 2026-04-30 06:49 | -38.59801 | 160.30730 | 38553 ft | 484 kts | 300° |
| 2026-04-30 06:49 | -38.56231 | 160.23427 | 38531 ft | 485 kts | 300° |
| 2026-04-30 06:50 | -38.52679 | 160.16176 | 38532 ft | 485 kts | 300° |
| 2026-04-30 06:50 | -38.49103 | 160.08892 | 38533 ft | 485 kts | 300° |
| 2026-04-30 06:51 | -38.45517 | 160.01606 | 38530 ft | 485 kts | 300° |
| 2026-04-30 06:51 | -38.41925 | 159.94324 | 38534 ft | 485 kts | 300° |
| 2026-04-30 06:52 | -38.38330 | 159.87050 | 38532 ft | 485 kts | 300° |
| 2026-04-30 06:52 | -38.34751 | 159.79827 | 38536 ft | 485 kts | 300° |
| 2026-04-30 06:53 | -38.31143 | 159.72561 | 38534 ft | 485 kts | 300° |
| 2026-04-30 06:53 | -38.27530 | 159.65301 | 38534 ft | 485 kts | 300° |
| 2026-04-30 06:54 | -38.23911 | 159.58046 | 38538 ft | 485 kts | 300° |
| 2026-04-30 06:54 | -38.20291 | 159.50804 | 38530 ft | 485 kts | 300° |
| 2026-04-30 06:55 | -38.16690 | 159.43616 | 38531 ft | 485 kts | 300° |
| 2026-04-30 06:55 | -38.13062 | 159.36389 | 38526 ft | 485 kts | 300° |
| 2026-04-30 06:56 | -38.09430 | 159.29172 | 38527 ft | 485 kts | 300° |
| 2026-04-30 06:56 | -38.05794 | 159.21961 | 38523 ft | 485 kts | 300° |
| 2026-04-30 06:57 | -38.02180 | 159.14811 | 38522 ft | 485 kts | 300° |
| 2026-04-30 06:57 | -37.98534 | 159.07613 | 38522 ft | 485 kts | 300° |
| 2026-04-30 06:58 | -37.94883 | 159.00421 | 38524 ft | 485 kts | 300° |
| 2026-04-30 06:58 | -37.91226 | 158.93233 | 38526 ft | 485 kts | 300° |
| 2026-04-30 06:59 | -37.87591 | 158.86103 | 38524 ft | 485 kts | 300° |
| 2026-04-30 06:59 | -37.83923 | 158.78926 | 38517 ft | 485 kts | 300° |
| 2026-04-30 07:00 | -37.80256 | 158.71764 | 38513 ft | 485 kts | 300° |
| 2026-04-30 07:00 | -37.76580 | 158.64602 | 38522 ft | 485 kts | 300° |
| 2026-04-30 07:01 | -37.72926 | 158.57497 | 38514 ft | 485 kts | 300° |
| 2026-04-30 07:01 | -37.69246 | 158.50357 | 38517 ft | 485 kts | 301° |
| 2026-04-30 07:02 | -37.65559 | 158.43219 | 38522 ft | 485 kts | 301° |
| 2026-04-30 07:02 | -37.62492 | 158.37292 | 38510 ft | 485 kts | 301° |
| 2026-04-30 07:03 | -37.58799 | 158.30164 | 38508 ft | 485 kts | 301° |
| 2026-04-30 07:03 | -37.54504 | 158.21888 | 38511 ft | 486 kts | 301° |
| 2026-04-30 07:04 | -37.50749 | 158.14822 | 38503 ft | 486 kts | 301° |
| 2026-04-30 07:04 | -37.47674 | 158.08913 | 38514 ft | 485 kts | 300° |
| 2026-04-30 07:05 | -37.42136 | 157.98247 | 38509 ft | 485 kts | 301° |
| 2026-04-30 07:05 | -37.37814 | 157.90005 | 38507 ft | 486 kts | 301° |
| 2026-04-30 07:06 | -37.34087 | 157.82922 | 38507 ft | 485 kts | 301° |
| 2026-04-30 07:06 | -37.30987 | 157.77043 | 38508 ft | 486 kts | 301° |
| 2026-04-30 07:07 | -37.27252 | 157.69972 | 38508 ft | 486 kts | 301° |
| 2026-04-30 07:07 | -37.22906 | 157.61763 | 38509 ft | 486 kts | 301° |
| 2026-04-30 07:08 | -37.19766 | 157.55846 | 38512 ft | 486 kts | 301° |
| 2026-04-30 07:08 | -37.16039 | 157.48835 | 38507 ft | 486 kts | 301° |
| 2026-04-30 07:09 | -37.12285 | 157.41789 | 38512 ft | 486 kts | 301° |
| 2026-04-30 07:09 | -37.07916 | 157.33605 | 38510 ft | 486 kts | 301° |
| 2026-04-30 07:10 | -37.04769 | 157.27724 | 38505 ft | 486 kts | 301° |
| 2026-04-30 07:10 | -37.01004 | 157.20702 | 38490 ft | 486 kts | 301° |
| 2026-04-30 07:11 | -36.97259 | 157.13731 | 38500 ft | 486 kts | 301° |
| 2026-04-30 07:11 | -36.93484 | 157.06718 | 38502 ft | 486 kts | 301° |
| 2026-04-30 07:12 | -36.89704 | 156.99710 | 38502 ft | 486 kts | 301° |
| 2026-04-30 07:12 | -36.85920 | 156.92711 | 38504 ft | 487 kts | 301° |
| 2026-04-30 07:13 | -36.82152 | 156.85755 | 38504 ft | 487 kts | 301° |
| 2026-04-30 07:13 | -36.78355 | 156.78761 | 38502 ft | 487 kts | 301° |
| 2026-04-30 07:14 | -36.74557 | 156.71778 | 38502 ft | 486 kts | 301° |
| 2026-04-30 07:14 | -36.70755 | 156.64802 | 38498 ft | 486 kts | 301° |
| 2026-04-30 07:15 | -36.66980 | 156.57892 | 38499 ft | 486 kts | 301° |
| 2026-04-30 07:15 | -36.63176 | 156.50941 | 38496 ft | 485 kts | 301° |
| 2026-04-30 07:16 | -36.59373 | 156.44006 | 38494 ft | 485 kts | 301° |
| 2026-04-30 07:16 | -36.55564 | 156.37075 | 38491 ft | 485 kts | 301° |
| 2026-04-30 07:17 | -36.51775 | 156.30193 | 38491 ft | 485 kts | 301° |
| 2026-04-30 07:18 | -36.46049 | 156.19821 | 38490 ft | 485 kts | 302° |
| 2026-04-30 07:18 | -36.42226 | 156.12914 | 38491 ft | 485 kts | 302° |
| 2026-04-30 07:19 | -36.38400 | 156.06015 | 38496 ft | 485 kts | 302° |
| 2026-04-30 07:19 | -36.34574 | 155.99129 | 38492 ft | 484 kts | 302° |
| 2026-04-30 07:20 | -36.30773 | 155.92304 | 38474 ft | 484 kts | 302° |
| 2026-04-30 07:20 | -36.26946 | 155.85446 | 38481 ft | 484 kts | 302° |
| 2026-04-30 07:21 | -36.23122 | 155.78605 | 38484 ft | 483 kts | 302° |
| 2026-04-30 07:21 | -36.19291 | 155.71766 | 38483 ft | 483 kts | 302° |
| 2026-04-30 07:22 | -36.13566 | 155.61571 | 38478 ft | 483 kts | 302° |
| 2026-04-30 07:22 | -36.09730 | 155.54757 | 38483 ft | 483 kts | 302° |
| 2026-04-30 07:23 | -36.05886 | 155.47941 | 38468 ft | 483 kts | 302° |
| 2026-04-30 07:23 | -36.02036 | 155.41129 | 38494 ft | 483 kts | 302° |
| 2026-04-30 07:24 | -35.98213 | 155.34378 | 38490 ft | 483 kts | 302° |
| 2026-04-30 07:24 | -35.94357 | 155.27583 | 38481 ft | 483 kts | 302° |
| 2026-04-30 07:25 | -35.90499 | 155.20796 | 38462 ft | 483 kts | 302° |
| 2026-04-30 07:25 | -35.86643 | 155.14027 | 38467 ft | 483 kts | 302° |
| 2026-04-30 07:26 | -35.82780 | 155.07259 | 38494 ft | 483 kts | 302° |
| 2026-04-30 07:26 | -35.78937 | 155.00539 | 38495 ft | 482 kts | 302° |
| 2026-04-30 07:27 | -35.75070 | 154.93790 | 38474 ft | 483 kts | 302° |
| 2026-04-30 07:27 | -35.71196 | 154.87042 | 38476 ft | 483 kts | 302° |
| 2026-04-30 07:28 | -35.67318 | 154.80300 | 38477 ft | 483 kts | 302° |
| 2026-04-30 07:28 | -35.63437 | 154.73558 | 38478 ft | 483 kts | 302° |
| 2026-04-30 07:29 | -35.59443 | 154.66993 | 38453 ft | 484 kts | 307° |
| 2026-04-30 07:29 | -35.55032 | 154.60733 | 38466 ft | 484 kts | 308° |
| 2026-04-30 07:30 | -35.48458 | 154.51310 | 38465 ft | 485 kts | 308° |
| 2026-04-30 07:31 | -35.44095 | 154.45077 | 38467 ft | 485 kts | 308° |
| 2026-04-30 07:31 | -35.39694 | 154.38808 | 38462 ft | 485 kts | 308° |
| 2026-04-30 07:32 | -35.35295 | 154.32552 | 38470 ft | 485 kts | 308° |
| 2026-04-30 07:32 | -35.30890 | 154.26300 | 38468 ft | 485 kts | 308° |
| 2026-04-30 07:33 | -35.26481 | 154.20053 | 38458 ft | 485 kts | 308° |
| 2026-04-30 07:33 | -35.22099 | 154.13855 | 38461 ft | 485 kts | 308° |
| 2026-04-30 07:34 | -35.17690 | 154.07631 | 38455 ft | 485 kts | 308° |
| 2026-04-30 07:34 | -35.13272 | 154.01406 | 38455 ft | 484 kts | 308° |
| 2026-04-30 07:35 | -35.08853 | 153.95189 | 38462 ft | 485 kts | 308° |
| 2026-04-30 07:35 | -35.04432 | 153.88982 | 38461 ft | 485 kts | 308° |
| 2026-04-30 07:36 | -35.00033 | 153.82816 | 38453 ft | 485 kts | 308° |
| 2026-04-30 07:36 | -34.95601 | 153.76616 | 38452 ft | 485 kts | 308° |
| 2026-04-30 07:37 | -34.91173 | 153.70432 | 38446 ft | 485 kts | 308° |
| 2026-04-30 07:37 | -34.86738 | 153.64248 | 38451 ft | 485 kts | 308° |
| 2026-04-30 07:38 | -34.82327 | 153.58110 | 38448 ft | 485 kts | 308° |
| 2026-04-30 07:38 | -34.77888 | 153.51943 | 38448 ft | 485 kts | 308° |
| 2026-04-30 07:39 | -34.73440 | 153.45775 | 38446 ft | 485 kts | 308° |
| 2026-04-30 07:39 | -34.68988 | 153.39613 | 38447 ft | 485 kts | 309° |
| 2026-04-30 07:40 | -34.64564 | 153.33500 | 38437 ft | 485 kts | 309° |
| 2026-04-30 07:40 | -34.60109 | 153.27354 | 38439 ft | 485 kts | 309° |
| 2026-04-30 07:41 | -34.55644 | 153.21206 | 38437 ft | 485 kts | 309° |
| 2026-04-30 07:41 | -34.51177 | 153.15068 | 38434 ft | 485 kts | 309° |
| 2026-04-30 07:42 | -34.46711 | 153.08939 | 38434 ft | 486 kts | 309° |
| 2026-04-30 07:42 | -34.42263 | 153.02847 | 38440 ft | 486 kts | 309° |
| 2026-04-30 07:43 | -34.37781 | 152.96719 | 38440 ft | 486 kts | 309° |
| 2026-04-30 07:43 | -34.33300 | 152.90603 | 38437 ft | 486 kts | 309° |
| 2026-04-30 07:44 | -34.28807 | 152.84481 | 38442 ft | 486 kts | 309° |
| 2026-04-30 07:44 | -34.24353 | 152.78423 | 38423 ft | 486 kts | 309° |
| 2026-04-30 07:45 | -34.19868 | 152.72333 | 38423 ft | 485 kts | 309° |
| 2026-04-30 07:45 | -34.15375 | 152.66243 | 38431 ft | 485 kts | 309° |
| 2026-04-30 07:46 | -34.10945 | 152.60151 | 38342 ft | 477 kts | 304° |
| 2026-04-30 07:46 | -34.09203 | 152.56787 | 37844 ft | 471 kts | 293° |
| 2026-04-30 07:46 | -34.08040 | 152.53100 | 37077 ft | 472 kts | 282° |
| 2026-04-30 07:46 | -34.07473 | 152.49248 | 36220 ft | 475 kts | 274° |
| 2026-04-30 07:47 | -34.07139 | 152.45254 | 35329 ft | 482 kts | 274° |
| 2026-04-30 07:47 | -34.06776 | 152.41205 | 34484 ft | 488 kts | 275° |
| 2026-04-30 07:47 | -34.06396 | 152.37139 | 33892 ft | 486 kts | 275° |
| 2026-04-30 07:47 | -34.06013 | 152.33117 | 33491 ft | 480 kts | 275° |
| 2026-04-30 07:48 | -34.05631 | 152.29133 | 33005 ft | 476 kts | 275° |
| 2026-04-30 07:48 | -34.05253 | 152.25189 | 32455 ft | 471 kts | 275° |
| 2026-04-30 07:48 | -34.04878 | 152.21278 | 31733 ft | 466 kts | 275° |
| 2026-04-30 07:48 | -34.04507 | 152.17423 | 31062 ft | 461 kts | 275° |
| 2026-04-30 07:49 | -34.04143 | 152.13662 | 30408 ft | 455 kts | 275° |
| 2026-04-30 07:49 | -34.03778 | 152.09889 | 29597 ft | 451 kts | 275° |
| 2026-04-30 07:49 | -34.03417 | 152.06160 | 28847 ft | 445 kts | 275° |
| 2026-04-30 07:49 | -34.03100 | 152.02945 | 28171 ft | 442 kts | 275° |
| 2026-04-30 07:50 | -34.02733 | 151.99291 | 27462 ft | 437 kts | 275° |
| 2026-04-30 07:50 | -34.02367 | 151.95670 | 26716 ft | 434 kts | 275° |
| 2026-04-30 07:50 | -34.02002 | 151.92076 | 25987 ft | 430 kts | 275° |
| 2026-04-30 07:50 | -34.01641 | 151.88510 | 25323 ft | 426 kts | 275° |
| 2026-04-30 07:51 | -34.01281 | 151.84970 | 24720 ft | 424 kts | 275° |
| 2026-04-30 07:51 | -34.00923 | 151.81456 | 24242 ft | 422 kts | 275° |
| 2026-04-30 07:51 | -34.00568 | 151.77961 | 23847 ft | 418 kts | 276° |
| 2026-04-30 07:51 | -34.00212 | 151.74492 | 23277 ft | 417 kts | 276° |
| 2026-04-30 07:52 | -33.99859 | 151.71048 | 22877 ft | 412 kts | 276° |
| 2026-04-30 07:52 | -33.99513 | 151.67685 | 22461 ft | 408 kts | 276° |
| 2026-04-30 07:52 | -33.99161 | 151.64291 | 21869 ft | 408 kts | 276° |
| 2026-04-30 07:52 | -33.98811 | 151.60904 | 21416 ft | 405 kts | 276° |
| 2026-04-30 07:53 | -33.98464 | 151.57565 | 20972 ft | 400 kts | 276° |
| 2026-04-30 07:53 | -33.98116 | 151.54226 | 20194 ft | 400 kts | 277° |
| 2026-04-30 07:53 | -33.97776 | 151.50954 | 19841 ft | 387 kts | 277° |
| 2026-04-30 07:53 | -33.97447 | 151.47812 | 19682 ft | 369 kts | 277° |
| 2026-04-30 07:54 | -33.97130 | 151.44788 | 19270 ft | 361 kts | 277° |
| 2026-04-30 07:54 | -33.96815 | 151.41790 | 18757 ft | 359 kts | 277° |
| 2026-04-30 07:54 | -33.96507 | 151.38858 | 18371 ft | 357 kts | 277° |
| 2026-04-30 07:54 | -33.96194 | 151.35877 | 18034 ft | 353 kts | 277° |
| 2026-04-30 07:55 | -33.95897 | 151.32985 | 17577 ft | 353 kts | 277° |
| 2026-04-30 07:55 | -33.95597 | 151.30053 | 17220 ft | 350 kts | 277° |
| 2026-04-30 07:55 | -33.95302 | 151.27164 | 16903 ft | 346 kts | 277° |
| 2026-04-30 07:55 | -33.95018 | 151.24290 | 16511 ft | 345 kts | 277° |
| 2026-04-30 07:56 | -33.94757 | 151.21421 | 16154 ft | 343 kts | 277° |
| 2026-04-30 07:56 | -33.94493 | 151.18577 | 15827 ft | 340 kts | 277° |
| 2026-04-30 07:56 | -33.94199 | 151.15768 | 15484 ft | 337 kts | 278° |
| 2026-04-30 07:56 | -33.93907 | 151.12978 | 15140 ft | 335 kts | 278° |
| 2026-04-30 07:57 | -33.93630 | 151.10209 | 14701 ft | 333 kts | 278° |
| 2026-04-30 07:57 | -33.93358 | 151.07483 | 14164 ft | 330 kts | 278° |
| 2026-04-30 07:57 | -33.93085 | 151.04758 | 13581 ft | 327 kts | 278° |
| 2026-04-30 07:57 | -33.92818 | 151.02042 | 12932 ft | 326 kts | 278° |
| 2026-04-30 07:58 | -33.92554 | 150.99336 | 12331 ft | 325 kts | 278° |
| 2026-04-30 07:58 | -33.92298 | 150.96632 | 11687 ft | 325 kts | 277° |
| 2026-04-30 07:58 | -33.92032 | 150.93952 | 11198 ft | 320 kts | 277° |
| 2026-04-30 07:58 | -33.91762 | 150.91285 | 10560 ft | 322 kts | 277° |
| 2026-04-30 07:59 | -33.91490 | 150.88628 | 10031 ft | 318 kts | 278° |
| 2026-04-30 07:59 | -33.91222 | 150.85986 | 9443 ft | 316 kts | 277° |
| 2026-04-30 07:59 | -33.91010 | 150.83370 | 8824 ft | 313 kts | 268° |
| 2026-04-30 08:00 | -33.92707 | 150.78825 | 7730 ft | 303 kts | 220° |
| 2026-04-30 08:00 | -33.94519 | 150.77581 | 7227 ft | 300 kts | 193° |
| 2026-04-30 08:00 | -33.96553 | 150.77409 | 7057 ft | 293 kts | 167° |
| 2026-04-30 08:00 | -33.98470 | 150.78232 | 7022 ft | 296 kts | 153° |
| 2026-04-30 08:01 | -34.00324 | 150.79307 | 7014 ft | 296 kts | 152° |
| 2026-04-30 08:01 | -34.02176 | 150.80399 | 7011 ft | 296 kts | 153° |
| 2026-04-30 08:01 | -34.04018 | 150.81483 | 6981 ft | 294 kts | 152° |
| 2026-04-30 08:01 | -34.05860 | 150.82556 | 6810 ft | 294 kts | 153° |
| 2026-04-30 08:02 | -34.09537 | 150.84703 | 5800 ft | 292 kts | 153° |
| 2026-04-30 08:02 | -34.11344 | 150.85741 | 5201 ft | 291 kts | 153° |
| 2026-04-30 08:03 | -34.14906 | 150.87773 | 4697 ft | 271 kts | 153° |
| 2026-04-30 08:03 | -34.18151 | 150.89614 | 4466 ft | 247 kts | 153° |
| 2026-04-30 08:03 | -34.19684 | 150.90470 | 4380 ft | 238 kts | 153° |
| 2026-04-30 08:04 | -34.21020 | 150.91513 | 4252 ft | 224 kts | 128° |
| 2026-04-30 08:04 | -34.21692 | 150.93125 | 4091 ft | 210 kts | 95° |
| 2026-04-30 08:04 | -34.21661 | 150.94847 | 3845 ft | 199 kts | 83° |
| 2026-04-30 08:04 | -34.21537 | 150.96489 | 3271 ft | 196 kts | 83° |
| 2026-04-30 08:05 | -34.21430 | 150.98058 | 3040 ft | 185 kts | 83° |
| 2026-04-30 08:05 | -34.21327 | 150.99600 | 3016 ft | 184 kts | 83° |
| 2026-04-30 08:05 | -34.21226 | 151.01147 | 3004 ft | 185 kts | 83° |
| 2026-04-30 08:05 | -34.21125 | 151.02684 | 3008 ft | 183 kts | 83° |
| 2026-04-30 08:06 | -34.21027 | 151.04232 | 3009 ft | 185 kts | 83° |
| 2026-04-30 08:06 | -34.20930 | 151.05769 | 3014 ft | 183 kts | 83° |
| 2026-04-30 08:06 | -34.20831 | 151.07318 | 3008 ft | 184 kts | 83° |
| 2026-04-30 08:06 | -34.20729 | 151.08858 | 3012 ft | 183 kts | 82° |
| 2026-04-30 08:07 | -34.20636 | 151.10388 | 3012 ft | 183 kts | 83° |
| 2026-04-30 08:07 | -34.20540 | 151.11929 | 3008 ft | 184 kts | 83° |
| 2026-04-30 08:07 | -34.20442 | 151.13477 | 3008 ft | 185 kts | 83° |
| 2026-04-30 08:07 | -34.20343 | 151.14960 | 3001 ft | 171 kts | 83° |
| 2026-04-30 08:08 | -34.20189 | 151.16341 | 2997 ft | 163 kts | 67° |
| 2026-04-30 08:08 | -34.19440 | 151.17318 | 3009 ft | 160 kts | 26° |
| 2026-04-30 08:08 | -34.18379 | 151.17597 | 3012 ft | 157 kts | 13° |
| 2026-04-30 08:08 | -34.17314 | 151.17849 | 3011 ft | 156 kts | 12° |
| 2026-04-30 08:09 | -34.16247 | 151.18058 | 2986 ft | 154 kts | 11° |
| 2026-04-30 08:09 | -34.15198 | 151.18268 | 2724 ft | 153 kts | 12° |
| 2026-04-30 08:09 | -34.14154 | 151.18496 | 2499 ft | 153 kts | 13° |
| 2026-04-30 08:09 | -34.13112 | 151.18739 | 2501 ft | 153 kts | 13° |
| 2026-04-30 08:10 | -34.12075 | 151.18987 | 2475 ft | 151 kts | 14° |
| 2026-04-30 08:10 | -34.11042 | 151.19233 | 2222 ft | 150 kts | 14° |
| 2026-04-30 08:10 | -34.10011 | 151.19481 | 2022 ft | 152 kts | 14° |
| 2026-04-30 08:10 | -34.08980 | 151.19730 | 2016 ft | 153 kts | 15° |
| 2026-04-30 08:11 | -34.07942 | 151.19981 | 2007 ft | 154 kts | 14° |
| 2026-04-30 08:11 | -34.06905 | 151.20230 | 1992 ft | 152 kts | 14° |
| 2026-04-30 08:11 | -34.05839 | 151.20366 | 1898 ft | 157 kts | 3° |
| 2026-04-30 08:11 | -34.04752 | 151.20210 | 1697 ft | 157 kts | 354° |